This is the latest recevied weather packets stored in our database for station/object KM5VY. If no packets are shown the sender has not sent any weather packets the latest 10 day(s).
| Time | Temp. | Humidity | Pressure | Rain* | Wind** | Luminosity | Snow |
|---|---|---|---|---|---|---|---|
| 1777583431 | 21.11° C | 27% | 1013.5 hPa | 0 mm | - | - | - |
| 1777583222 | 21.11° C | 27% | 1013.5 hPa | 0 mm | - | - | - |
| 1777582621 | 21.11° C | 26% | 1013.9 hPa | 0 mm | - | - | - |
| 1777581420 | 21.67° C | 21% | 1013.9 hPa | 0 mm | - | - | - |
| 1777580818 | 21.67° C | 21% | 1014.2 hPa | 0 mm | - | - | - |
| 1777580218 | 21.11° C | 22% | 1013.9 hPa | 0 mm | - | - | - |
| 1777579015 | 20° C | 30% | 1013.9 hPa | 0 mm | - | - | - |
| 1777578414 | 18.89° C | 31% | 1014.6 hPa | 0 mm | - | - | - |
| 1777576612 | 19.44° C | 31% | 1014.6 hPa | 0 mm | - | - | - |
| 1777576010 | 20° C | 30% | 1014.9 hPa | 0 mm | - | - | - |
| 1777575409 | 21.11° C | 29% | 1014.9 hPa | 0 mm | - | - | - |
| 1777574808 | 21.67° C | 29% | 1014.9 hPa | 0 mm | - | - | - |
| 1777573606 | 21.11° C | 30% | 1015.2 hPa | 0 mm | - | - | - |
| 1777572404 | 21.67° C | 30% | 1015.6 hPa | 0 mm | - | - | - |
| 1777571803 | 20.56° C | 31% | 1015.9 hPa | 0 mm | - | - | - |
| 1777571203 | 20.56° C | 31% | 1016.3 hPa | 0 mm | - | - | - |
| 1777570601 | 20° C | 33% | 1016.3 hPa | 0 mm | - | - | - |
| 1777570000 | 18.89° C | 34% | 1016.3 hPa | 0 mm | - | - | - |
| 1777569399 | 18.33° C | 35% | 1016.6 hPa | 0 mm | - | - | - |
| 1777568197 | 17.22° C | 38% | 1016.9 hPa | 0 mm | - | - | - |
| 1777566996 | 16.11° C | 40% | 1016.9 hPa | 0 mm | - | - | - |
| 1777565793 | 15° C | 43% | 1017.6 hPa | 0 mm | - | - | - |
| 1777564592 | 12.78° C | 46% | 1017.6 hPa | 0 mm | - | - | - |
| 1777563390 | 11.11° C | 50% | 1015.9 hPa | 0 mm | - | - | - |
| 1777562789 | 10° C | 52% | 1015.2 hPa | 0 mm | - | - | - |
* Rain latest hour (hover to see other rain measurements)
** Current wind speed in m/s (hover to see current wind gust speed)